sensor_id;sensor_type;location;lat;lon;timestamp;temperature;humidity
79026;DHT22;68425;44.716;37.756;2023-03-24T00:00:24;27.67;37.37
79026;DHT22;68425;44.716;37.756;2023-03-24T00:01:26;27.65;37.36
79026;DHT22;68425;44.716;37.756;2023-03-24T00:02:27;27.65;37.37
79026;DHT22;68425;44.716;37.756;2023-03-24T00:03:33;27.64;37.38
79026;DHT22;68425;44.716;37.756;2023-03-24T00:04:36;27.65;37.35
79026;DHT22;68425;44.716;37.756;2023-03-24T00:05:42;27.66;37.33
79026;DHT22;68425;44.716;37.756;2023-03-24T00:06:45;27.66;37.31
79026;DHT22;68425;44.716;37.756;2023-03-24T00:07:49;27.65;37.37
79026;DHT22;68425;44.716;37.756;2023-03-24T00:08:51;27.65;37.38
79026;DHT22;68425;44.716;37.756;2023-03-24T00:09:53;27.65;37.37
79026;DHT22;68425;44.716;37.756;2023-03-24T00:10:58;27.65;37.37
79026;DHT22;68425;44.716;37.756;2023-03-24T00:12:00;27.65;37.37
79026;DHT22;68425;44.716;37.756;2023-03-24T00:13:02;27.65;37.37
79026;DHT22;68425;44.716;37.756;2023-03-24T00:14:04;27.65;37.37
79026;DHT22;68425;44.716;37.756;2023-03-24T00:15:09;27.65;37.36
79026;DHT22;68425;44.716;37.756;2023-03-24T00:16:12;27.64;37.37
79026;DHT22;68425;44.716;37.756;2023-03-24T00:17:14;27.65;37.37
79026;DHT22;68425;44.716;37.756;2023-03-24T00:18:17;27.65;37.40
79026;DHT22;68425;44.716;37.756;2023-03-24T00:19:23;27.65;37.37
79026;DHT22;68425;44.716;37.756;2023-03-24T00:20:25;27.64;37.39
79026;DHT22;68425;44.716;37.756;2023-03-24T00:21:26;27.64;37.41
79026;DHT22;68425;44.716;37.756;2023-03-24T00:22:28;27.63;37.40
79026;DHT22;68425;44.716;37.756;2023-03-24T00:23:30;27.63;37.40
79026;DHT22;68425;44.716;37.756;2023-03-24T00:24:33;27.63;37.40
79026;DHT22;68425;44.716;37.756;2023-03-24T00:25:34;27.63;37.41
79026;DHT22;68425;44.716;37.756;2023-03-24T00:26:38;27.63;37.42
79026;DHT22;68425;44.716;37.756;2023-03-24T00:27:40;27.63;37.40
79026;DHT22;68425;44.716;37.756;2023-03-24T00:28:44;27.64;37.38
79026;DHT22;68425;44.716;37.756;2023-03-24T00:29:45;27.67;37.33
79026;DHT22;68425;44.716;37.756;2023-03-24T00:30:47;27.68;37.24
79026;DHT22;68425;44.716;37.756;2023-03-24T00:31:53;27.68;37.28
79026;DHT22;68425;44.716;37.756;2023-03-24T00:32:54;27.66;37.30
79026;DHT22;68425;44.716;37.756;2023-03-24T00:33:59;27.67;37.31
79026;DHT22;68425;44.716;37.756;2023-03-24T00:35:05;27.65;37.33
79026;DHT22;68425;44.716;37.756;2023-03-24T00:36:10;27.64;37.37
79026;DHT22;68425;44.716;37.756;2023-03-24T00:37:12;27.61;37.39
79026;DHT22;68425;44.716;37.756;2023-03-24T00:38:13;27.60;37.46
79026;DHT22;68425;44.716;37.756;2023-03-24T00:39:18;27.58;37.48
79026;DHT22;68425;44.716;37.756;2023-03-24T00:40:21;27.57;37.47
79026;DHT22;68425;44.716;37.756;2023-03-24T00:41:23;27.57;37.49
79026;DHT22;68425;44.716;37.756;2023-03-24T00:42:27;27.59;37.48
79026;DHT22;68425;44.716;37.756;2023-03-24T00:43:28;27.61;37.42
79026;DHT22;68425;44.716;37.756;2023-03-24T00:44:30;27.61;37.38
79026;DHT22;68425;44.716;37.756;2023-03-24T00:45:32;27.63;37.39
79026;DHT22;68425;44.716;37.756;2023-03-24T00:46:34;27.61;37.37
79026;DHT22;68425;44.716;37.756;2023-03-24T00:47:37;27.65;37.33
79026;DHT22;68425;44.716;37.756;2023-03-24T00:48:39;27.64;37.35
79026;DHT22;68425;44.716;37.756;2023-03-24T00:49:44;27.64;37.34
79026;DHT22;68425;44.716;37.756;2023-03-24T00:50:49;27.64;37.37
79026;DHT22;68425;44.716;37.756;2023-03-24T00:51:51;27.63;37.33
79026;DHT22;68425;44.716;37.756;2023-03-24T00:52:53;27.64;37.31
79026;DHT22;68425;44.716;37.756;2023-03-24T00:53:56;27.66;37.28
79026;DHT22;68425;44.716;37.756;2023-03-24T00:54:59;27.65;37.28
79026;DHT22;68425;44.716;37.756;2023-03-24T00:56:02;27.65;37.27
79026;DHT22;68425;44.716;37.756;2023-03-24T00:57:07;27.64;37.29
79026;DHT22;68425;44.716;37.756;2023-03-24T00:58:09;27.64;37.27
79026;DHT22;68425;44.716;37.756;2023-03-24T00:59:11;27.64;37.29
79026;DHT22;68425;44.716;37.756;2023-03-24T01:00:18;27.63;37.29
79026;DHT22;68425;44.716;37.756;2023-03-24T01:01:21;27.64;37.27
79026;DHT22;68425;44.716;37.756;2023-03-24T01:02:25;27.64;37.30
79026;DHT22;68425;44.716;37.756;2023-03-24T01:03:27;27.65;37.28
79026;DHT22;68425;44.716;37.756;2023-03-24T01:04:29;27.63;37.30
79026;DHT22;68425;44.716;37.756;2023-03-24T01:05:31;27.63;37.29
79026;DHT22;68425;44.716;37.756;2023-03-24T01:06:35;27.63;37.31
79026;DHT22;68425;44.716;37.756;2023-03-24T01:07:37;27.63;37.30
79026;DHT22;68425;44.716;37.756;2023-03-24T01:08:43;27.63;37.29
79026;DHT22;68425;44.716;37.756;2023-03-24T01:09:45;27.63;37.30
79026;DHT22;68425;44.716;37.756;2023-03-24T01:10:52;27.63;37.27
79026;DHT22;68425;44.716;37.756;2023-03-24T01:11:54;27.63;37.26
79026;DHT22;68425;44.716;37.756;2023-03-24T01:12:57;27.63;37.27
79026;DHT22;68425;44.716;37.756;2023-03-24T01:14:00;27.64;37.26
79026;DHT22;68425;44.716;37.756;2023-03-24T01:15:06;27.63;37.25
79026;DHT22;68425;44.716;37.756;2023-03-24T01:16:08;27.64;37.25
79026;DHT22;68425;44.716;37.756;2023-03-24T01:17:10;27.63;37.28
79026;DHT22;68425;44.716;37.756;2023-03-24T01:18:12;27.64;37.26
79026;DHT22;68425;44.716;37.756;2023-03-24T01:19:14;27.63;37.24
79026;DHT22;68425;44.716;37.756;2023-03-24T01:20:16;27.64;37.26
79026;DHT22;68425;44.716;37.756;2023-03-24T01:21:18;27.64;37.24
79026;DHT22;68425;44.716;37.756;2023-03-24T01:22:20;27.64;37.24
79026;DHT22;68425;44.716;37.756;2023-03-24T01:23:24;27.61;37.26
79026;DHT22;68425;44.716;37.756;2023-03-24T01:24:26;27.61;37.27
79026;DHT22;68425;44.716;37.756;2023-03-24T01:25:27;27.64;37.23
79026;DHT22;68425;44.716;37.756;2023-03-24T01:26:30;27.63;37.23
79026;DHT22;68425;44.716;37.756;2023-03-24T01:27:32;27.63;37.24
79026;DHT22;68425;44.716;37.756;2023-03-24T01:28:34;27.61;37.27
79026;DHT22;68425;44.716;37.756;2023-03-24T01:29:41;27.60;37.25
79026;DHT22;68425;44.716;37.756;2023-03-24T01:30:43;27.63;37.24
79026;DHT22;68425;44.716;37.756;2023-03-24T01:31:44;27.64;37.23
79026;DHT22;68425;44.716;37.756;2023-03-24T01:32:46;27.64;37.18
79026;DHT22;68425;44.716;37.756;2023-03-24T01:33:48;27.64;37.21
79026;DHT22;68425;44.716;37.756;2023-03-24T01:34:49;27.64;37.21
79026;DHT22;68425;44.716;37.756;2023-03-24T01:35:51;27.65;37.21
79026;DHT22;68425;44.716;37.756;2023-03-24T01:36:52;27.61;37.23
79026;DHT22;68425;44.716;37.756;2023-03-24T01:37:54;27.60;37.21
79026;DHT22;68425;44.716;37.756;2023-03-24T01:38:56;27.63;37.21
79026;DHT22;68425;44.716;37.756;2023-03-24T01:40:01;27.63;37.21
79026;DHT22;68425;44.716;37.756;2023-03-24T01:41:07;27.64;37.17
79026;DHT22;68425;44.716;37.756;2023-03-24T01:42:17;27.64;37.13
79026;DHT22;68425;44.716;37.756;2023-03-24T01:43:22;27.68;37.09
79026;DHT22;68425;44.716;37.756;2023-03-24T01:44:34;27.65;37.11
79026;DHT22;68425;44.716;37.756;2023-03-24T01:46:14;27.66;37.10
79026;DHT22;68425;44.716;37.756;2023-03-24T01:47:16;27.68;37.01
79026;DHT22;68425;44.716;37.756;2023-03-24T01:48:33;27.67;37.05
79026;DHT22;68425;44.716;37.756;2023-03-24T01:49:45;27.66;37.06
79026;DHT22;68425;44.716;37.756;2023-03-24T01:50:57;27.64;37.11
79026;DHT22;68425;44.716;37.756;2023-03-24T01:52:02;27.64;37.10
79026;DHT22;68425;44.716;37.756;2023-03-24T01:53:04;27.63;37.14
79026;DHT22;68425;44.716;37.756;2023-03-24T01:54:20;27.60;37.18
79026;DHT22;68425;44.716;37.756;2023-03-24T01:55:25;27.63;37.14
79026;DHT22;68425;44.716;37.756;2023-03-24T01:56:32;27.63;37.14
79026;DHT22;68425;44.716;37.756;2023-03-24T01:57:39;27.60;37.14
79026;DHT22;68425;44.716;37.756;2023-03-24T01:58:46;27.60;37.17
79026;DHT22;68425;44.716;37.756;2023-03-24T01:59:59;27.61;37.19
79026;DHT22;68425;44.716;37.756;2023-03-24T02:01:23;27.61;37.14
79026;DHT22;68425;44.716;37.756;2023-03-24T02:03:00;27.64;37.11
79026;DHT22;68425;44.716;37.756;2023-03-24T02:04:07;27.64;37.05
79026;DHT22;68425;44.716;37.756;2023-03-24T02:05:11;27.63;37.09
79026;DHT22;68425;44.716;37.756;2023-03-24T02:06:18;27.61;37.13
79026;DHT22;68425;44.716;37.756;2023-03-24T02:07:33;27.59;37.17
79026;DHT22;68425;44.716;37.756;2023-03-24T02:08:41;27.58;37.19
79026;DHT22;68425;44.716;37.756;2023-03-24T02:09:45;27.58;37.21
79026;DHT22;68425;44.716;37.756;2023-03-24T02:10:47;27.56;37.23
79026;DHT22;68425;44.716;37.756;2023-03-24T02:11:50;27.57;37.24
79026;DHT22;68425;44.716;37.756;2023-03-24T02:12:51;27.55;37.27
79026;DHT22;68425;44.716;37.756;2023-03-24T02:13:53;27.55;37.27
79026;DHT22;68425;44.716;37.756;2023-03-24T02:14:55;27.57;37.21
79026;DHT22;68425;44.716;37.756;2023-03-24T02:16:30;27.53;37.30
79026;DHT22;68425;44.716;37.756;2023-03-24T02:23:54;27.57;37.20
79026;DHT22;68425;44.716;37.756;2023-03-24T02:30:52;27.56;37.22
79026;DHT22;68425;44.716;37.756;2023-03-24T02:32:11;27.53;37.26
79026;DHT22;68425;44.716;37.756;2023-03-24T02:33:50;27.52;37.32
79026;DHT22;68425;44.716;37.756;2023-03-24T02:40:34;27.54;37.25
79026;DHT22;68425;44.716;37.756;2023-03-24T02:42:10;27.51;37.32
79026;DHT22;68425;44.716;37.756;2023-03-24T02:47:23;27.50;37.33
79026;DHT22;68425;44.716;37.756;2023-03-24T02:48:35;27.52;37.33
79026;DHT22;68425;44.716;37.756;2023-03-24T02:49:49;27.51;37.33
79026;DHT22;68425;44.716;37.756;2023-03-24T02:51:12;27.49;37.34
79026;DHT22;68425;44.716;37.756;2023-03-24T02:54:30;27.51;37.30
79026;DHT22;68425;44.716;37.756;2023-03-24T02:55:01;27.53;37.24
79026;DHT22;68425;44.716;37.756;2023-03-24T02:57:35;27.52;37.31
79026;DHT22;68425;44.716;37.756;2023-03-24T02:59:19;27.54;37.21
79026;DHT22;68425;44.716;37.756;2023-03-24T03:01:04;27.53;37.24
79026;DHT22;68425;44.716;37.756;2023-03-24T03:02:36;27.56;37.17
79026;DHT22;68425;44.716;37.756;2023-03-24T03:03:51;27.52;37.40
79026;DHT22;68425;44.716;37.756;2023-03-24T03:05:13;27.53;37.50
79026;DHT22;68425;44.716;37.756;2023-03-24T03:06:26;27.54;37.40
79026;DHT22;68425;44.716;37.756;2023-03-24T03:07:30;27.54;37.64
79026;DHT22;68425;44.716;37.756;2023-03-24T03:08:34;27.54;37.69
79026;DHT22;68425;44.716;37.756;2023-03-24T03:09:39;27.53;37.70
79026;DHT22;68425;44.716;37.756;2023-03-24T03:10:44;27.52;37.64
79026;DHT22;68425;44.716;37.756;2023-03-24T03:11:49;27.53;37.83
79026;DHT22;68425;44.716;37.756;2023-03-24T03:12:55;27.53;37.82
79026;DHT22;68425;44.716;37.756;2023-03-24T03:14:13;27.52;37.95
79026;DHT22;68425;44.716;37.756;2023-03-24T03:15:23;27.56;37.98
79026;DHT22;68425;44.716;37.756;2023-03-24T03:17:53;27.60;37.81
79026;DHT22;68425;44.716;37.756;2023-03-24T03:19:00;27.65;37.75
79026;DHT22;68425;44.716;37.756;2023-03-24T03:20:12;27.64;37.82
79026;DHT22;68425;44.716;37.756;2023-03-24T03:21:18;27.64;37.66
79026;DHT22;68425;44.716;37.756;2023-03-24T03:22:24;27.65;37.81
79026;DHT22;68425;44.716;37.756;2023-03-24T03:23:51;27.64;38.12
79026;DHT22;68425;44.716;37.756;2023-03-24T03:24:53;27.65;37.72
79026;DHT22;68425;44.716;37.756;2023-03-24T03:26:00;27.66;38.00
79026;DHT22;68425;44.716;37.756;2023-03-24T03:27:20;27.67;37.81
79026;DHT22;68425;44.716;37.756;2023-03-24T03:28:24;27.67;37.70
79026;DHT22;68425;44.716;37.756;2023-03-24T03:29:34;27.67;37.79
79026;DHT22;68425;44.716;37.756;2023-03-24T03:30:41;27.68;37.89
79026;DHT22;68425;44.716;37.756;2023-03-24T03:31:48;27.67;37.92
79026;DHT22;68425;44.716;37.756;2023-03-24T03:32:56;27.68;37.80
79026;DHT22;68425;44.716;37.756;2023-03-24T03:35:29;27.71;37.85
79026;DHT22;68425;44.716;37.756;2023-03-24T03:36:56;27.69;37.65
79026;DHT22;68425;44.716;37.756;2023-03-24T03:38:58;27.71;37.75
79026;DHT22;68425;44.716;37.756;2023-03-24T03:39:48;27.74;37.44
79026;DHT22;68425;44.716;37.756;2023-03-24T03:40:55;27.72;37.52
79026;DHT22;68425;44.716;37.756;2023-03-24T03:42:05;27.71;37.62
79026;DHT22;68425;44.716;37.756;2023-03-24T03:43:07;27.70;37.53
79026;DHT22;68425;44.716;37.756;2023-03-24T03:44:09;27.69;37.50
79026;DHT22;68425;44.716;37.756;2023-03-24T03:45:12;27.68;37.54
79026;DHT22;68425;44.716;37.756;2023-03-24T03:46:16;27.67;37.55
79026;DHT22;68425;44.716;37.756;2023-03-24T03:47:18;27.68;37.49
79026;DHT22;68425;44.716;37.756;2023-03-24T03:48:23;27.65;37.82
79026;DHT22;68425;44.716;37.756;2023-03-24T03:49:26;27.65;37.80
79026;DHT22;68425;44.716;37.756;2023-03-24T03:50:28;27.65;38.18
79026;DHT22;68425;44.716;37.756;2023-03-24T03:51:34;27.66;37.83
79026;DHT22;68425;44.716;37.756;2023-03-24T03:52:38;27.67;37.95
79026;DHT22;68425;44.716;37.756;2023-03-24T03:53:55;27.69;37.92
79026;DHT22;68425;44.716;37.756;2023-03-24T03:54:58;27.69;37.84
79026;DHT22;68425;44.716;37.756;2023-03-24T03:56:01;27.73;37.90
79026;DHT22;68425;44.716;37.756;2023-03-24T03:57:06;27.74;37.88
79026;DHT22;68425;44.716;37.756;2023-03-24T03:58:20;27.74;37.96
79026;DHT22;68425;44.716;37.756;2023-03-24T03:59:35;27.73;37.84
79026;DHT22;68425;44.716;37.756;2023-03-24T04:00:48;27.76;37.81
79026;DHT22;68425;44.716;37.756;2023-03-24T04:05:08;27.79;37.83
79026;DHT22;68425;44.716;37.756;2023-03-24T04:11:53;27.79;37.76
79026;DHT22;68425;44.716;37.756;2023-03-24T04:19:50;27.81;37.35
79026;DHT22;68425;44.716;37.756;2023-03-24T04:25:28;27.79;37.53
79026;DHT22;68425;44.716;37.756;2023-03-24T04:26:47;27.78;37.64
79026;DHT22;68425;44.716;37.756;2023-03-24T04:29:12;27.79;37.29
79026;DHT22;68425;44.716;37.756;2023-03-24T04:31:40;27.80;37.43
79026;DHT22;68425;44.716;37.756;2023-03-24T04:32:50;27.79;37.40
79026;DHT22;68425;44.716;37.756;2023-03-24T04:35:08;27.80;37.50
79026;DHT22;68425;44.716;37.756;2023-03-24T04:36:50;27.86;37.33
79026;DHT22;68425;44.716;37.756;2023-03-24T04:38:18;27.90;37.25
79026;DHT22;68425;44.716;37.756;2023-03-24T04:39:35;27.87;37.26
79026;DHT22;68425;44.716;37.756;2023-03-24T04:40:44;27.88;37.36
79026;DHT22;68425;44.716;37.756;2023-03-24T04:41:46;27.86;37.41
79026;DHT22;68425;44.716;37.756;2023-03-24T04:42:57;27.84;37.37
79026;DHT22;68425;44.716;37.756;2023-03-24T04:44:04;27.82;37.43
79026;DHT22;68425;44.716;37.756;2023-03-24T04:45:12;27.82;37.58
79026;DHT22;68425;44.716;37.756;2023-03-24T04:46:35;27.83;37.50
79026;DHT22;68425;44.716;37.756;2023-03-24T04:47:49;27.82;37.40
79026;DHT22;68425;44.716;37.756;2023-03-24T04:49:26;27.85;37.33
79026;DHT22;68425;44.716;37.756;2023-03-24T04:50:35;27.83;37.36
79026;DHT22;68425;44.716;37.756;2023-03-24T04:51:42;27.83;37.46
79026;DHT22;68425;44.716;37.756;2023-03-24T04:52:57;27.83;37.36
79026;DHT22;68425;44.716;37.756;2023-03-24T04:53:59;27.84;37.39
79026;DHT22;68425;44.716;37.756;2023-03-24T04:55:02;27.83;37.28
79026;DHT22;68425;44.716;37.756;2023-03-24T04:56:33;27.83;37.41
79026;DHT22;68425;44.716;37.756;2023-03-24T04:57:44;27.87;37.27
79026;DHT22;68425;44.716;37.756;2023-03-24T04:58:45;27.85;37.27
79026;DHT22;68425;44.716;37.756;2023-03-24T04:59:47;27.85;37.30
79026;DHT22;68425;44.716;37.756;2023-03-24T05:00:51;27.84;37.46
79026;DHT22;68425;44.716;37.756;2023-03-24T05:01:53;27.85;37.38
79026;DHT22;68425;44.716;37.756;2023-03-24T05:03:00;27.85;37.34
79026;DHT22;68425;44.716;37.756;2023-03-24T05:04:03;27.85;37.35
79026;DHT22;68425;44.716;37.756;2023-03-24T05:05:05;27.84;37.45
79026;DHT22;68425;44.716;37.756;2023-03-24T05:06:19;27.86;37.35
79026;DHT22;68425;44.716;37.756;2023-03-24T05:07:21;27.86;37.37
79026;DHT22;68425;44.716;37.756;2023-03-24T05:08:26;27.86;37.38
79026;DHT22;68425;44.716;37.756;2023-03-24T05:09:28;27.85;37.37
79026;DHT22;68425;44.716;37.756;2023-03-24T05:10:33;27.85;37.28
79026;DHT22;68425;44.716;37.756;2023-03-24T05:11:35;27.86;37.24
79026;DHT22;68425;44.716;37.756;2023-03-24T05:12:42;27.86;37.40
79026;DHT22;68425;44.716;37.756;2023-03-24T05:13:56;27.87;37.29
79026;DHT22;68425;44.716;37.756;2023-03-24T05:14:57;27.88;37.26
79026;DHT22;68425;44.716;37.756;2023-03-24T05:16:00;27.87;37.25
79026;DHT22;68425;44.716;37.756;2023-03-24T05:17:10;27.90;37.27
79026;DHT22;68425;44.716;37.756;2023-03-24T05:18:11;27.89;37.23
79026;DHT22;68425;44.716;37.756;2023-03-24T05:19:14;27.91;37.09
79026;DHT22;68425;44.716;37.756;2023-03-24T05:20:17;27.95;37.01
79026;DHT22;68425;44.716;37.756;2023-03-24T05:21:23;27.95;37.09
79026;DHT22;68425;44.716;37.756;2023-03-24T05:22:25;27.94;37.06
79026;DHT22;68425;44.716;37.756;2023-03-24T05:23:26;27.94;37.08
79026;DHT22;68425;44.716;37.756;2023-03-24T05:24:29;27.93;37.17
79026;DHT22;68425;44.716;37.756;2023-03-24T05:25:31;27.90;37.06
79026;DHT22;68425;44.716;37.756;2023-03-24T05:26:33;27.90;37.10
79026;DHT22;68425;44.716;37.756;2023-03-24T05:27:43;27.89;37.11
79026;DHT22;68425;44.716;37.756;2023-03-24T05:28:57;27.90;37.08
79026;DHT22;68425;44.716;37.756;2023-03-24T05:29:59;27.89;37.11
79026;DHT22;68425;44.716;37.756;2023-03-24T05:31:04;27.90;37.08
79026;DHT22;68425;44.716;37.756;2023-03-24T05:32:38;27.94;36.97
79026;DHT22;68425;44.716;37.756;2023-03-24T05:33:39;27.94;37.08
79026;DHT22;68425;44.716;37.756;2023-03-24T05:34:41;27.91;37.05
79026;DHT22;68425;44.716;37.756;2023-03-24T05:35:48;27.91;37.14
79026;DHT22;68425;44.716;37.756;2023-03-24T05:36:49;27.88;37.08
79026;DHT22;68425;44.716;37.756;2023-03-24T05:37:54;27.87;37.12
79026;DHT22;68425;44.716;37.756;2023-03-24T05:38:56;27.86;37.12
79026;DHT22;68425;44.716;37.756;2023-03-24T05:40:03;27.88;37.17
79026;DHT22;68425;44.716;37.756;2023-03-24T05:41:22;27.89;37.14
79026;DHT22;68425;44.716;37.756;2023-03-24T05:42:24;27.88;37.17
79026;DHT22;68425;44.716;37.756;2023-03-24T05:43:26;27.89;37.17
79026;DHT22;68425;44.716;37.756;2023-03-24T05:44:46;27.89;37.08
79026;DHT22;68425;44.716;37.756;2023-03-24T05:45:56;27.91;36.99
79026;DHT22;68425;44.716;37.756;2023-03-24T05:47:04;27.97;36.96
79026;DHT22;68425;44.716;37.756;2023-03-24T05:48:06;27.95;36.97
79026;DHT22;68425;44.716;37.756;2023-03-24T05:49:29;27.95;36.89
79026;DHT22;68425;44.716;37.756;2023-03-24T05:50:32;27.93;36.88
79026;DHT22;68425;44.716;37.756;2023-03-24T05:51:34;27.90;37.01
79026;DHT22;68425;44.716;37.756;2023-03-24T05:52:38;27.89;37.08
79026;DHT22;68425;44.716;37.756;2023-03-24T05:54:01;27.91;37.08
79026;DHT22;68425;44.716;37.756;2023-03-24T05:55:17;27.91;36.94
79026;DHT22;68425;44.716;37.756;2023-03-24T05:56:23;27.90;36.98
79026;DHT22;68425;44.716;37.756;2023-03-24T05:57:43;27.91;37.03
79026;DHT22;68425;44.716;37.756;2023-03-24T05:59:07;27.91;36.95
79026;DHT22;68425;44.716;37.756;2023-03-24T06:00:36;27.93;37.02
79026;DHT22;68425;44.716;37.756;2023-03-24T06:01:45;27.90;37.00
79026;DHT22;68425;44.716;37.756;2023-03-24T06:02:59;27.93;36.98
79026;DHT22;68425;44.716;37.756;2023-03-24T06:04:07;27.90;37.08
79026;DHT22;68425;44.716;37.756;2023-03-24T06:05:09;27.88;37.05
79026;DHT22;68425;44.716;37.756;2023-03-24T06:06:11;27.87;37.07
79026;DHT22;68425;44.716;37.756;2023-03-24T06:07:17;27.88;37.01
79026;DHT22;68425;44.716;37.756;2023-03-24T06:08:20;27.86;37.14
79026;DHT22;68425;44.716;37.756;2023-03-24T06:09:21;27.88;37.21
79026;DHT22;68425;44.716;37.756;2023-03-24T06:10:27;27.85;37.14
79026;DHT22;68425;44.716;37.756;2023-03-24T06:11:28;27.85;37.10
79026;DHT22;68425;44.716;37.756;2023-03-24T06:12:37;27.86;37.03
79026;DHT22;68425;44.716;37.756;2023-03-24T06:13:39;27.86;37.00
79026;DHT22;68425;44.716;37.756;2023-03-24T06:14:41;27.87;37.01
79026;DHT22;68425;44.716;37.756;2023-03-24T06:15:48;27.89;37.01
79026;DHT22;68425;44.716;37.756;2023-03-24T06:17:15;27.91;36.91
79026;DHT22;68425;44.716;37.756;2023-03-24T06:18:20;27.91;36.98
79026;DHT22;68425;44.716;37.756;2023-03-24T06:19:22;27.89;37.21
79026;DHT22;68425;44.716;37.756;2023-03-24T06:20:39;27.88;36.85
79026;DHT22;68425;44.716;37.756;2023-03-24T06:21:44;27.88;36.98
79026;DHT22;68425;44.716;37.756;2023-03-24T06:22:52;27.87;37.00
79026;DHT22;68425;44.716;37.756;2023-03-24T06:24:01;27.88;36.94
79026;DHT22;68425;44.716;37.756;2023-03-24T06:25:06;27.88;36.96
79026;DHT22;68425;44.716;37.756;2023-03-24T06:26:11;27.88;37.14
79026;DHT22;68425;44.716;37.756;2023-03-24T06:27:34;27.89;36.91
79026;DHT22;68425;44.716;37.756;2023-03-24T06:28:37;27.89;36.92
79026;DHT22;68425;44.716;37.756;2023-03-24T06:29:46;27.89;36.88
79026;DHT22;68425;44.716;37.756;2023-03-24T06:30:49;27.87;36.90
79026;DHT22;68425;44.716;37.756;2023-03-24T06:31:59;27.89;36.86
79026;DHT22;68425;44.716;37.756;2023-03-24T06:33:02;27.89;36.96
79026;DHT22;68425;44.716;37.756;2023-03-24T06:34:04;27.88;36.98
79026;DHT22;68425;44.716;37.756;2023-03-24T06:35:06;27.89;36.99
79026;DHT22;68425;44.716;37.756;2023-03-24T06:36:17;27.90;36.95
79026;DHT22;68425;44.716;37.756;2023-03-24T06:37:21;27.89;36.86
79026;DHT22;68425;44.716;37.756;2023-03-24T06:38:23;27.88;37.06
79026;DHT22;68425;44.716;37.756;2023-03-24T06:39:25;27.87;36.98
79026;DHT22;68425;44.716;37.756;2023-03-24T06:40:26;27.88;36.99
79026;DHT22;68425;44.716;37.756;2023-03-24T06:41:32;27.88;36.86
79026;DHT22;68425;44.716;37.756;2023-03-24T06:42:35;27.88;36.98
79026;DHT22;68425;44.716;37.756;2023-03-24T06:43:37;27.89;36.95
79026;DHT22;68425;44.716;37.756;2023-03-24T06:44:38;27.88;36.97
79026;DHT22;68425;44.716;37.756;2023-03-24T06:45:40;27.88;37.02
79026;DHT22;68425;44.716;37.756;2023-03-24T06:46:45;27.88;36.97
79026;DHT22;68425;44.716;37.756;2023-03-24T06:47:47;27.88;36.97
79026;DHT22;68425;44.716;37.756;2023-03-24T06:48:49;27.87;37.01
79026;DHT22;68425;44.716;37.756;2023-03-24T06:49:51;27.87;37.00
79026;DHT22;68425;44.716;37.756;2023-03-24T06:50:53;27.88;36.93
79026;DHT22;68425;44.716;37.756;2023-03-24T06:51:55;27.88;36.89
79026;DHT22;68425;44.716;37.756;2023-03-24T06:52:59;27.89;36.96
79026;DHT22;68425;44.716;37.756;2023-03-24T06:54:02;27.88;37.07
79026;DHT22;68425;44.716;37.756;2023-03-24T06:55:05;27.88;37.14
79026;DHT22;68425;44.716;37.756;2023-03-24T06:56:08;27.89;37.01
79026;DHT22;68425;44.716;37.756;2023-03-24T06:57:16;27.89;36.99
79026;DHT22;68425;44.716;37.756;2023-03-24T06:58:37;27.91;36.79
79026;DHT22;68425;44.716;37.756;2023-03-24T06:59:40;27.89;36.90
79026;DHT22;68425;44.716;37.756;2023-03-24T07:00:43;27.90;36.82
79026;DHT22;68425;44.716;37.756;2023-03-24T07:02:09;27.91;36.85
79026;DHT22;68425;44.716;37.756;2023-03-24T07:03:15;27.90;36.74
79026;DHT22;68425;44.716;37.756;2023-03-24T07:04:27;27.90;36.98
79026;DHT22;68425;44.716;37.756;2023-03-24T07:05:37;27.89;37.01
79026;DHT22;68425;44.716;37.756;2023-03-24T07:06:39;27.89;36.95
79026;DHT22;68425;44.716;37.756;2023-03-24T07:07:48;27.88;36.85
79026;DHT22;68425;44.716;37.756;2023-03-24T07:09:11;27.90;36.72
79026;DHT22;68425;44.716;37.756;2023-03-24T07:10:12;27.89;36.88
79026;DHT22;68425;44.716;37.756;2023-03-24T07:11:14;27.88;36.93
79026;DHT22;68425;44.716;37.756;2023-03-24T07:12:24;27.90;36.92
79026;DHT22;68425;44.716;37.756;2023-03-24T07:13:26;27.89;36.92
79026;DHT22;68425;44.716;37.756;2023-03-24T07:14:34;27.90;36.82
79026;DHT22;68425;44.716;37.756;2023-03-24T07:15:38;27.90;36.69
79026;DHT22;68425;44.716;37.756;2023-03-24T07:16:40;27.89;36.76
79026;DHT22;68425;44.716;37.756;2023-03-24T07:18:00;27.91;36.69
79026;DHT22;68425;44.716;37.756;2023-03-24T07:19:25;27.93;36.71
79026;DHT22;68425;44.716;37.756;2023-03-24T07:20:43;27.95;36.79
79026;DHT22;68425;44.716;37.756;2023-03-24T07:21:47;27.91;36.74
79026;DHT22;68425;44.716;37.756;2023-03-24T07:22:56;27.91;36.74
79026;DHT22;68425;44.716;37.756;2023-03-24T07:23:58;27.93;36.80
79026;DHT22;68425;44.716;37.756;2023-03-24T07:25:07;27.91;36.75
79026;DHT22;68425;44.716;37.756;2023-03-24T07:26:22;27.91;36.80
79026;DHT22;68425;44.716;37.756;2023-03-24T07:27:32;27.89;36.84
79026;DHT22;68425;44.716;37.756;2023-03-24T07:28:34;27.90;36.80
79026;DHT22;68425;44.716;37.756;2023-03-24T07:29:36;27.88;36.80
79026;DHT22;68425;44.716;37.756;2023-03-24T07:31:07;27.88;36.85
79026;DHT22;68425;44.716;37.756;2023-03-24T07:32:11;27.88;36.87
79026;DHT22;68425;44.716;37.756;2023-03-24T07:33:13;27.89;36.94
79026;DHT22;68425;44.716;37.756;2023-03-24T07:34:18;27.87;36.86
79026;DHT22;68425;44.716;37.756;2023-03-24T07:35:19;27.87;37.08
79026;DHT22;68425;44.716;37.756;2023-03-24T07:36:21;27.87;36.91
79026;DHT22;68425;44.716;37.756;2023-03-24T07:37:23;27.86;36.88
79026;DHT22;68425;44.716;37.756;2023-03-24T07:38:25;27.86;36.88
79026;DHT22;68425;44.716;37.756;2023-03-24T07:39:29;27.87;36.86
79026;DHT22;68425;44.716;37.756;2023-03-24T07:40:31;27.88;36.82
79026;DHT22;68425;44.716;37.756;2023-03-24T07:41:35;27.89;36.82
79026;DHT22;68425;44.716;37.756;2023-03-24T07:42:42;27.90;36.79
79026;DHT22;68425;44.716;37.756;2023-03-24T07:44:04;27.90;36.79
79026;DHT22;68425;44.716;37.756;2023-03-24T07:45:13;27.89;36.84
79026;DHT22;68425;44.716;37.756;2023-03-24T07:46:16;27.90;36.71
79026;DHT22;68425;44.716;37.756;2023-03-24T07:47:17;27.89;36.79
79026;DHT22;68425;44.716;37.756;2023-03-24T07:48:22;27.90;36.83
79026;DHT22;68425;44.716;37.756;2023-03-24T07:49:26;27.90;36.82
79026;DHT22;68425;44.716;37.756;2023-03-24T07:50:36;27.90;36.79